Time;durP1;ratioP1;P1;durP2;ratioP2;P2;SDS_P1;SDS_P2;PMS_P1;PMS_P2;Temp;Humidity;BMP_temperature;BMP_pressure;BME280_temperature;BME280_humidity;BME280_pressure;Samples;Min_cycle;Max_cycle;Signal;HPM_P1;HPM_P2
2021/07/20 00:00:52;;;;;;;5.45;5.25;;;;;;;13.73;84.66;101617.59;4400271;32;20065;-65
2021/07/20 00:03:18;;;;;;;5.05;4.75;;;;;;;13.18;84.60;101542.06;4401619;32;20071;-66
2021/07/20 00:05:43;;;;;;;5.43;5.12;;;;;;;13.25;84.68;101552.28;4399364;32;20446;-65
2021/07/20 00:08:09;;;;;;;4.97;4.78;;;;;;;13.64;85.18;101617.19;4400909;32;20072;-64
2021/07/20 00:10:35;;;;;;;5.72;5.43;;;;;;;13.62;85.31;101621.69;4386227;32;20088;-64
2021/07/20 00:13:01;;;;;;;4.80;4.60;;;;;;;13.59;85.16;101622.72;4418853;32;20139;-64
2021/07/20 00:15:26;;;;;;;4.80;4.60;;;;;;;13.27;85.39;101576.78;4399385;32;20176;-64
2021/07/20 00:17:54;;;;;;;5.35;5.07;;;;;;;13.52;85.65;101618.66;4402906;32;20073;-64
2021/07/20 00:20:21;;;;;;;5.37;5.07;;;;;;;13.48;85.59;101617.09;4401159;32;20212;-64
2021/07/20 00:22:46;;;;;;;5.22;5.03;;;;;;;13.44;85.89;101615.56;4391242;32;20600;-64
2021/07/20 00:25:12;;;;;;;5.00;4.80;;;;;;;13.36;85.34;101608.03;4384934;32;20091;-64
2021/07/20 00:27:37;;;;;;;4.90;4.70;;;;;;;13.40;86.16;101614.00;4400778;32;20073;-64
2021/07/20 00:30:04;;;;;;;4.85;4.65;;;;;;;13.37;86.00;101617.66;4386634;32;20084;-64
2021/07/20 00:32:29;;;;;;;4.90;4.70;;;;;;;13.33;85.69;101614.31;4395974;32;20061;-64
2021/07/20 00:34:54;;;;;;;5.45;5.15;;;;;;;13.35;85.83;101614.22;4402662;32;20092;-64
2021/07/20 00:37:20;;;;;;;6.15;5.70;;;;;;;13.24;85.76;101604.16;4397437;32;20075;-64
2021/07/20 00:39:45;;;;;;;5.62;5.32;;;;;;;13.27;86.15;101611.94;4395389;32;20069;-64
2021/07/20 00:42:10;;;;;;;4.80;4.60;;;;;;;13.25;86.28;101611.16;4395836;32;20081;-64
2021/07/20 00:44:36;;;;;;;5.15;4.95;;;;;;;13.24;86.02;101617.34;4391932;32;20072;-64
2021/07/20 00:47:01;;;;;;;4.95;4.75;;;;;;;13.24;85.94;101613.88;4397182;32;20077;-64
2021/07/20 00:49:26;;;;;;;5.12;4.82;;;;;;;13.21;86.15;101612.25;4402096;32;20502;-64
2021/07/20 00:51:52;;;;;;;4.97;4.78;;;;;;;13.18;85.98;101617.66;4399086;32;20068;-64
2021/07/20 00:54:17;;;;;;;4.85;4.65;;;;;;;13.15;85.98;101609.91;4380688;32;20081;-64
2021/07/20 00:56:42;;;;;;;5.37;5.18;;;;;;;13.15;85.93;101615.19;4398065;32;20072;-64
2021/07/20 00:59:08;;;;;;;4.60;4.40;;;;;;;13.10;85.96;101604.81;4385782;32;20075;-64
2021/07/20 01:01:33;;;;;;;5.50;5.22;;;;;;;13.05;86.13;101606.84;4400645;32;20442;-64
2021/07/20 01:03:59;;;;;;;4.70;4.50;;;;;;;13.07;85.86;101609.37;4399305;32;20065;-64
2021/07/20 01:06:24;;;;;;;5.37;5.07;;;;;;;13.04;85.81;101610.41;4399046;32;20632;-64
2021/07/20 01:08:49;;;;;;;4.90;4.70;;;;;;;12.67;86.03;101548.06;4395795;32;20146;-64
2021/07/20 01:11:15;;;;;;;4.78;4.57;;;;;;;12.97;85.49;101595.81;4400500;32;20076;-64
2021/07/20 01:13:40;;;;;;;5.35;5.05;;;;;;;12.96;86.37;101600.22;4387252;32;20065;-64
2021/07/20 01:16:06;;;;;;;4.62;4.43;;;;;;;12.96;86.60;101616.03;4387921;32;20388;-64
2021/07/20 01:18:31;;;;;;;5.00;4.80;;;;;;;12.95;86.27;101608.22;4394622;32;20079;-64
2021/07/20 01:20:56;;;;;;;5.20;4.90;;;;;;;12.94;85.78;101606.50;4393761;32;20073;-64
2021/07/20 01:23:32;;;;;;;4.97;4.78;;;;;;;12.88;86.43;101617.34;4383886;32;20085;-64
2021/07/20 01:25:57;;;;;;;4.70;4.50;;;;;;;12.87;86.14;101623.50;4392304;32;20095;-64
2021/07/20 01:28:23;;;;;;;5.12;4.72;;;;;;;12.85;86.37;101617.47;4383440;32;20073;-64
2021/07/20 01:30:51;;;;;;;4.82;4.62;;;;;;;12.74;86.59;101605.66;4397744;32;20104;-64
2021/07/20 01:33:16;;;;;;;5.10;4.90;;;;;;;12.82;86.26;101622.88;4391362;32;20294;-64
2021/07/20 01:35:43;;;;;;;5.10;4.90;;;;;;;12.78;86.42;101625.66;4387954;32;20824;-64
2021/07/20 01:38:09;;;;;;;5.00;4.70;;;;;;;12.75;86.12;101615.28;4397368;32;20102;-64
2021/07/20 01:40:35;;;;;;;4.87;4.68;;;;;;;12.71;86.44;101615.50;4399915;32;20076;-64
2021/07/20 01:43:00;;;;;;;5.12;4.85;;;;;;;12.62;86.58;101610.66;4383356;32;20095;-64
2021/07/20 01:45:29;;;;;;;4.53;4.32;;;;;;;12.65;86.50;101611.38;4392071;32;20505;-65
2021/07/20 01:47:55;;;;;;;4.80;4.60;;;;;;;12.63;86.65;101615.84;4402632;32;20091;-64
2021/07/20 01:50:20;;;;;;;5.47;5.18;;;;;;;12.61;86.73;101622.97;4388513;32;20120;-64
2021/07/20 01:52:46;;;;;;;4.93;4.72;;;;;;;12.58;87.35;101623.94;4397635;32;20065;-64
2021/07/20 01:55:12;;;;;;;5.75;5.45;;;;;;;12.58;86.64;101623.09;4390479;32;20072;-64
2021/07/20 01:57:39;;;;;;;6.10;5.80;;;;;;;12.56;87.01;101620.53;4381632;32;20103;-65
2021/07/20 02:00:15;;;;;;;5.40;5.00;;;;;;;12.44;87.11;101604.44;4388871;32;20187;-64
2021/07/20 02:02:54;;;;;;;4.80;4.60;;;;;;;12.51;86.77;101616.41;4386132;32;20092;-64
2021/07/20 02:08:37;;;;;;;4.43;4.22;;;;;;;12.42;86.88;101614.19;4405823;32;20400;-64
2021/07/20 02:11:08;;;;;;;5.32;5.03;;;;;;;12.41;86.94;101617.72;4407073;32;20206;-64
2021/07/20 02:13:41;;;;;;;4.62;4.43;;;;;;;12.37;87.54;101625.78;4386774;32;20677;-64
2021/07/20 02:16:06;;;;;;;4.55;4.35;;;;;;;11.42;87.66;101479.16;4388821;32;20077;-64
2021/07/20 02:18:32;;;;;;;5.05;4.82;;;;;;;12.35;87.56;101627.63;4397399;32;20502;-64
2021/07/20 02:21:00;;;;;;;5.00;4.80;;;;;;;12.33;87.97;101634.75;4399540;32;20077;-64
2021/07/20 02:23:31;;;;;;;4.80;4.60;;;;;;;12.34;87.41;101620.63;4377226;32;20197;-64
2021/07/20 02:25:56;;;;;;;4.93;4.62;;;;;;;12.34;87.72;101630.31;4400347;32;20069;-64
2021/07/20 02:28:22;;;;;;;4.85;4.65;;;;;;;12.32;87.93;101627.75;4388283;32;20068;-64
2021/07/20 02:30:48;;;;;;;5.47;5.07;;;;;;;12.30;87.54;101621.69;4400717;32;20069;-64
2021/07/20 02:33:14;;;;;;;21.25;20.15;;;;;;;10.90;87.61;101392.91;4359820;32;20406;-65
2021/07/20 02:35:39;;;;;;;5.32;5.03;;;;;;;11.98;87.88;101573.97;4391303;32;20084;-64
2021/07/20 02:38:04;;;;;;;4.90;4.70;;;;;;;12.22;87.63;101615.06;4389723;32;20072;-64
2021/07/20 02:40:30;;;;;;;5.57;5.32;;;;;;;12.22;87.99;101612.44;4402087;32;20134;-65
2021/07/20 02:42:57;;;;;;;4.62;4.43;;;;;;;12.22;87.85;101613.28;4403784;32;20095;-64
2021/07/20 02:45:22;;;;;;;4.60;4.40;;;;;;;12.18;87.74;101620.47;4389730;32;20678;-64
2021/07/20 02:47:48;;;;;;;4.80;4.60;;;;;;;12.17;88.49;101617.94;4402608;32;20085;-64
2021/07/20 02:50:15;;;;;;;4.55;4.35;;;;;;;12.18;87.98;101619.63;4398439;32;20107;-65
2021/07/20 02:52:42;;;;;;;4.85;4.65;;;;;;;12.18;88.23;101623.09;4385304;32;20088;-64
2021/07/20 02:55:08;;;;;;;4.80;4.60;;;;;;;12.17;87.82;101623.19;4399618;32;20090;-64
2021/07/20 02:57:33;;;;;;;4.93;4.72;;;;;;;12.19;88.02;101621.34;4389469;32;20072;-64
2021/07/20 02:59:58;;;;;;;5.40;5.10;;;;;;;12.12;88.13;101612.00;4399794;32;20675;-64
2021/07/20 03:02:24;;;;;;;4.68;4.47;;;;;;;12.09;88.48;101620.03;4385655;32;20088;-64
2021/07/20 03:04:49;;;;;;;4.80;4.60;;;;;;;12.04;88.93;101608.84;4393804;32;20200;-64
2021/07/20 03:07:15;;;;;;;5.37;4.82;;;;;;;12.02;88.11;101611.53;4388102;32;20107;-64
2021/07/20 03:09:41;;;;;;;5.00;4.80;;;;;;;12.00;88.63;101621.28;4401322;32;20091;-64
2021/07/20 03:12:09;;;;;;;4.65;4.45;;;;;;;11.97;89.34;101611.75;4398646;32;20096;-64
2021/07/20 03:14:34;;;;;;;4.60;4.40;;;;;;;11.93;88.96;101610.16;4402200;32;20099;-64
2021/07/20 03:16:59;;;;;;;5.07;4.87;;;;;;;11.88;89.69;101609.47;4385314;32;20637;-64
2021/07/20 03:19:26;;;;;;;4.50;4.30;;;;;;;11.84;89.30;101614.94;4397204;32;20151;-64
2021/07/20 03:21:56;;;;;;;4.60;4.40;;;;;;;11.74;89.79;101611.84;4391413;32;20088;-64
2021/07/20 03:24:21;;;;;;;4.93;4.57;;;;;;;11.79;89.85;101620.41;4386191;32;20082;-64
2021/07/20 03:26:47;;;;;;;4.70;4.50;;;;;;;11.77;89.27;101611.72;4398745;32;20058;-64
2021/07/20 03:29:12;;;;;;;4.75;4.55;;;;;;;11.78;89.17;101613.41;4394207;32;20418;-64
2021/07/20 03:31:38;;;;;;;5.37;5.07;;;;;;;11.37;89.72;101545.91;4386545;32;20088;-64
2021/07/20 03:34:03;;;;;;;4.68;4.47;;;;;;;11.77;89.48;101594.16;4400121;32;20083;-64
2021/07/20 03:36:29;;;;;;;4.78;4.57;;;;;;;11.81;89.31;101604.53;4385007;32;20112;-64
2021/07/20 03:38:54;;;;;;;4.80;4.60;;;;;;;11.79;89.66;101615.12;4399342;32;20119;-64
2021/07/20 03:41:20;;;;;;;4.62;4.43;;;;;;;11.77;89.74;101604.69;4386668;32;20069;-64
2021/07/20 03:43:46;;;;;;;5.07;4.70;;;;;;;11.77;89.73;101601.22;4396006;32;20752;-64
2021/07/20 03:46:11;;;;;;;4.87;4.68;;;;;;;11.74;89.61;101606.56;4384122;32;20131;-64
2021/07/20 03:48:36;;;;;;;4.60;4.40;;;;;;;11.73;89.81;101602.25;4402540;32;20061;-65
2021/07/20 03:51:02;;;;;;;5.50;5.10;;;;;;;11.72;89.98;101604.00;4382576;32;20073;-66
2021/07/20 03:53:28;;;;;;;4.60;4.40;;;;;;;11.74;90.38;101603.94;4386254;32;20178;-66
2021/07/20 03:55:55;;;;;;;5.10;4.90;;;;;;;11.74;90.46;101611.84;4382756;32;20606;-66
2021/07/20 03:58:20;;;;;;;5.32;5.03;;;;;;;11.78;90.08;101611.62;4398061;32;20079;-66
2021/07/20 04:00:47;;;;;;;4.40;4.20;;;;;;;11.85;89.85;101614.88;4399564;32;20077;-65
2021/07/20 04:03:21;;;;;;;5.07;4.80;;;;;;;11.88;89.73;101609.47;4397158;32;20077;-66
2021/07/20 04:05:48;;;;;;;5.53;5.22;;;;;;;11.94;89.85;101608.38;4388964;32;20088;-65
2021/07/20 04:08:14;;;;;;;4.75;4.55;;;;;;;12.01;89.56;101611.59;4387758;32;20080;-66
2021/07/20 04:10:39;;;;;;;5.45;5.05;;;;;;;12.02;89.30;101616.81;4396687;32;20065;-66
2021/07/20 04:13:05;;;;;;;5.57;5.20;;;;;;;12.09;88.86;101617.41;4386353;32;20089;-66
2021/07/20 04:15:30;;;;;;;4.57;4.37;;;;;;;12.20;89.18;101619.56;4389850;32;20099;-66
2021/07/20 04:17:55;;;;;;;4.72;4.53;;;;;;;12.43;88.68;101606.22;4403199;32;20081;-65
2021/07/20 04:20:21;;;;;;;4.65;4.45;;;;;;;12.68;87.27;101615.63;4380975;32;20148;-66
2021/07/20 04:22:46;;;;;;;5.10;4.80;;;;;;;12.91;85.86;101610.16;4392082;32;20085;-66
2021/07/20 04:25:12;;;;;;;5.75;5.45;;;;;;;13.30;84.15;101613.59;4384023;32;20084;-65
2021/07/20 04:27:38;;;;;;;4.87;4.68;;;;;;;13.37;83.16;101612.38;4399393;32;20724;-65
2021/07/20 04:30:06;;;;;;;4.60;4.40;;;;;;;13.36;82.56;101613.28;4388991;32;20099;-66
2021/07/20 04:32:32;;;;;;;5.10;4.90;;;;;;;13.46;82.40;101614.53;4386223;32;20069;-66
2021/07/20 04:34:57;;;;;;;5.18;4.95;;;;;;;13.70;81.54;101616.87;4400467;32;20107;-66
2021/07/20 04:37:22;;;;;;;5.35;5.05;;;;;;;13.86;80.78;101617.81;4401006;32;20072;-66
2021/07/20 04:39:48;;;;;;;5.35;5.05;;;;;;;14.05;80.08;101616.84;4397867;32;20604;-65
2021/07/20 04:42:13;;;;;;;4.97;4.78;;;;;;;14.48;78.88;101612.78;4396449;32;20072;-66
2021/07/20 04:44:39;;;;;;;5.10;4.85;;;;;;;14.23;78.35;101617.66;4385803;32;20104;-65
2021/07/20 04:47:04;;;;;;;5.65;5.15;;;;;;;14.71;77.48;101616.00;4394219;32;20085;-66
2021/07/20 04:49:29;;;;;;;5.00;4.80;;;;;;;14.81;75.94;101616.34;4384938;32;20061;-66
2021/07/20 04:51:55;;;;;;;5.30;5.00;;;;;;;15.33;75.56;101619.56;4396461;32;20094;-66
2021/07/20 04:54:20;;;;;;;5.10;4.80;;;;;;;13.79;74.68;101428.25;4382870;32;20154;-66
2021/07/20 04:56:45;;;;;;;5.30;5.00;;;;;;;14.85;75.39;101616.09;4394349;32;20089;-66
2021/07/20 04:59:11;;;;;;;4.90;4.70;;;;;;;15.40;74.76;101624.50;4396078;32;20087;-66
2021/07/20 05:01:37;;;;;;;5.20;5.00;;;;;;;15.43;74.04;101617.22;4384677;32;20134;-66
2021/07/20 05:04:03;;;;;;;6.15;5.75;;;;;;;15.56;73.58;101628.81;4383463;32;20069;-66
2021/07/20 05:06:28;;;;;;;5.97;5.62;;;;;;;15.30;74.86;101630.31;4396696;32;20107;-66
2021/07/20 05:08:54;;;;;;;5.70;5.40;;;;;;;15.69;73.23;101625.44;4380428;32;20172;-66
2021/07/20 05:11:20;;;;;;;6.00;5.25;;;;;;;15.68;73.00;101631.69;4396927;32;20117;-66
2021/07/20 05:13:46;;;;;;;5.70;5.40;;;;;;;16.16;71.97;101627.06;4395668;32;20081;-66
2021/07/20 05:16:11;;;;;;;6.05;5.72;;;;;;;16.43;70.89;101621.88;4382920;32;20076;-66
2021/07/20 05:18:36;;;;;;;5.10;4.90;;;;;;;16.41;70.78;101628.22;4397233;32;20078;-66
2021/07/20 05:21:02;;;;;;;5.62;5.32;;;;;;;16.46;71.47;101631.44;4390180;32;20100;-66
2021/07/20 05:23:28;;;;;;;5.75;5.45;;;;;;;16.48;68.66;101593.28;4398148;32;20085;-67
2021/07/20 05:25:56;;;;;;;5.40;5.10;;;;;;;17.36;68.25;101632.78;4400760;32;20170;-66
2021/07/20 05:28:25;;;;;;;5.43;5.12;;;;;;;17.58;66.59;101605.66;4386519;32;20263;-66
2021/07/20 05:30:51;;;;;;;5.72;5.30;;;;;;;17.75;64.23;101580.62;4394270;32;20215;-66
2021/07/20 05:33:19;;;;;;;5.70;5.40;;;;;;;17.42;66.29;101632.38;4387327;32;20072;-66
2021/07/20 05:35:48;;;;;;;6.00;5.70;;;;;;;18.08;64.75;101635.03;4384504;32;20078;-66
2021/07/20 05:38:14;;;;;;;5.75;5.43;;;;;;;18.72;62.90;101635.84;4394693;32;20093;-66
2021/07/20 05:40:39;;;;;;;5.78;5.47;;;;;;;18.60;62.46;101636.75;4380829;32;20075;-66
2021/07/20 05:43:04;;;;;;;5.72;5.43;;;;;;;18.39;62.49;101593.06;4381930;32;20073;-66
2021/07/20 05:45:30;;;;;;;5.87;5.57;;;;;;;19.06;62.14;101644.09;4398952;32;20069;-67
2021/07/20 05:47:55;;;;;;;6.07;5.57;;;;;;;19.55;62.29;101641.41;4396208;32;20093;-66
2021/07/20 05:50:22;;;;;;;5.93;5.62;;;;;;;19.61;59.24;101648.94;4397736;32;20085;-66
2021/07/20 05:52:49;;;;;;;7.45;7.05;;;;;;;19.51;59.91;101646.94;4395931;32;20700;-66
2021/07/20 05:55:14;;;;;;;6.40;6.03;;;;;;;19.58;60.06;101651.81;4411134;32;20420;-66
2021/07/20 05:57:40;;;;;;;6.55;6.05;;;;;;;19.50;59.74;101657.72;4385969;32;20827;-66
2021/07/20 06:00:07;;;;;;;6.10;5.78;;;;;;;18.76;62.11;101656.87;4394348;32;20602;-66
2021/07/20 06:02:32;;;;;;;8.07;6.22;;;;;;;18.59;62.88;101648.31;4381439;32;20581;-66
2021/07/20 06:04:57;;;;;;;6.68;6.05;;;;;;;18.50;64.66;101660.47;4395565;32;20073;-66
2021/07/20 06:07:23;;;;;;;6.07;5.72;;;;;;;18.68;62.86;101660.97;4384384;32;20500;-67
2021/07/20 06:09:48;;;;;;;9.90;6.62;;;;;;;19.16;61.74;101660.19;4398468;32;20083;-66
2021/07/20 06:12:14;;;;;;;6.18;5.57;;;;;;;19.67;60.93;101665.28;4382894;32;20081;-66
2021/07/20 06:14:39;;;;;;;6.45;5.90;;;;;;;20.24;60.12;101668.97;4395368;32;20061;-66
2021/07/20 06:17:05;;;;;;;6.12;5.72;;;;;;;20.86;57.48;101661.50;4381539;32;20688;-66
2021/07/20 06:19:32;;;;;;;6.62;6.12;;;;;;;20.75;56.57;101669.50;4388069;32;20614;-66
2021/07/20 06:21:57;;;;;;;7.30;6.90;;;;;;;19.60;60.17;101664.03;4387755;32;20121;-66
2021/07/20 06:24:23;;;;;;;5.85;5.55;;;;;;;18.73;62.22;101666.78;4396732;32;20835;-66
2021/07/20 06:26:49;;;;;;;6.12;5.72;;;;;;;18.90;63.58;101662.97;4382745;32;20593;-68
2021/07/20 06:29:14;;;;;;;6.78;6.28;;;;;;;19.25;61.62;101664.88;4393226;32;20175;-68
2021/07/20 06:31:40;;;;;;;6.55;6.05;;;;;;;19.13;63.22;101660.44;4381497;32;20092;-67
2021/07/20 06:34:06;;;;;;;7.30;6.70;;;;;;;19.06;62.16;101668.03;4391354;32;20111;-68
2021/07/20 06:36:33;;;;;;;6.60;6.25;;;;;;;19.05;62.12;101671.63;4382291;32;20657;-68
2021/07/20 06:38:59;;;;;;;6.10;5.75;;;;;;;18.72;63.36;101669.56;4391855;32;20073;-68
2021/07/20 06:41:24;;;;;;;6.43;6.07;;;;;;;18.02;66.62;101667.34;4382763;32;20083;-68
2021/07/20 06:43:49;;;;;;;7.37;6.78;;;;;;;18.36;65.34;101670.34;4392106;32;20073;-67
2021/07/20 06:46:17;;;;;;;6.78;6.20;;;;;;;18.76;64.51;101676.34;4382267;32;20123;-67
2021/07/20 06:48:44;;;;;;;7.28;6.78;;;;;;;18.61;63.18;101664.16;4380320;32;20069;-67
2021/07/20 06:51:10;;;;;;;6.68;6.18;;;;;;;18.33;64.29;101679.38;4379304;32;20674;-72
2021/07/20 06:53:35;;;;;;;6.65;6.18;;;;;;;18.50;64.13;101646.28;4392439;32;20082;-71
2021/07/20 06:56:02;;;;;;;6.30;5.90;;;;;;;18.81;63.21;101670.75;4391380;32;20077;-72
2021/07/20 06:58:28;;;;;;;6.82;6.28;;;;;;;17.97;62.92;101584.50;4392443;32;20557;-72
2021/07/20 07:00:58;;;;;;;7.15;6.60;;;;;;;18.40;63.97;101675.34;4396812;32;20207;-71
2021/07/20 07:03:30;;;;;;;6.45;6.15;;;;;;;18.63;64.36;101678.19;4381581;32;20073;-69
2021/07/20 07:05:56;;;;;;;6.50;6.00;;;;;;;18.60;63.37;101618.12;4404564;32;20677;-67
2021/07/20 07:08:22;;;;;;;6.65;6.15;;;;;;;19.06;62.35;101675.16;4380101;32;20519;-68
2021/07/20 07:10:48;;;;;;;6.25;5.85;;;;;;;19.22;62.37;101677.53;4396054;32;20069;-67
2021/07/20 07:13:13;;;;;;;6.82;6.15;;;;;;;19.53;61.06;101682.31;4398209;32;20091;-72
2021/07/20 07:15:38;;;;;;;6.97;6.28;;;;;;;19.58;60.87;101681.09;4386415;32;20515;-70
2021/07/20 07:18:04;;;;;;;6.25;5.75;;;;;;;19.74;59.78;101671.03;4381977;32;20406;-70
2021/07/20 07:20:29;;;;;;;5.62;5.32;;;;;;;19.69;60.20;101678.50;4387383;32;20594;-72
2021/07/20 07:22:55;;;;;;;5.62;5.32;;;;;;;19.61;60.59;101672.91;4379954;32;20069;-72
2021/07/20 07:25:20;;;;;;;6.75;6.15;;;;;;;19.47;60.21;101685.41;4398933;32;20634;-72
2021/07/20 07:27:46;;;;;;;7.43;6.82;;;;;;;19.47;60.59;101684.59;4395417;32;20083;-73
2021/07/20 07:30:12;;;;;;;6.62;6.03;;;;;;;19.73;59.86;101683.50;4380789;32;20077;-72
2021/07/20 07:32:37;;;;;;;6.32;5.93;;;;;;;19.85;59.53;101676.41;4395181;32;20176;-73
2021/07/20 07:35:04;;;;;;;7.50;6.55;;;;;;;19.86;59.25;101678.09;4393000;32;20114;-72
2021/07/20 07:37:29;;;;;;;7.43;6.30;;;;;;;19.78;59.47;101675.16;4380945;32;20065;-73
2021/07/20 07:39:55;;;;;;;6.82;6.43;;;;;;;19.91;59.48;101673.28;4394907;32;20081;-71
2021/07/20 07:42:21;;;;;;;6.57;6.15;;;;;;;19.38;59.07;101682.59;4396636;32;20068;-72
2021/07/20 07:44:47;;;;;;;5.47;5.18;;;;;;;19.46;59.77;101683.72;4403873;32;20115;-72
2021/07/20 07:47:12;;;;;;;6.85;6.25;;;;;;;19.51;59.80;101680.72;4386900;32;20187;-72
2021/07/20 07:49:37;;;;;;;6.43;6.05;;;;;;;19.09;59.46;101683.75;4384710;32;20362;-73
2021/07/20 07:52:03;;;;;;;5.75;5.30;;;;;;;18.99;59.78;101663.25;4385703;32;20084;-75
2021/07/20 07:54:28;;;;;;;6.00;5.60;;;;;;;19.52;59.49;101680.63;4384628;32;20069;-72
2021/07/20 07:56:53;;;;;;;7.05;6.65;;;;;;;19.90;58.80;101678.72;4380280;32;20073;-70
2021/07/20 07:59:23;;;;;;;6.35;5.75;;;;;;;19.74;57.60;101681.69;4400274;32;20084;-70
2021/07/20 08:01:49;;;;;;;5.90;5.60;;;;;;;19.65;57.47;101677.03;4406350;32;20080;-72
2021/07/20 08:04:14;;;;;;;5.72;5.40;;;;;;;19.94;57.26;101685.50;4380169;32;20098;-69
2021/07/20 08:06:41;;;;;;;7.05;6.45;;;;;;;19.73;57.58;101677.34;4384436;32;20083;-71
2021/07/20 08:09:06;;;;;;;6.20;5.90;;;;;;;19.64;57.71;101680.66;4399157;32;20463;-72
2021/07/20 08:11:31;;;;;;;6.10;5.68;;;;;;;19.79;56.47;101684.03;4385345;32;20441;-71
2021/07/20 08:13:58;;;;;;;7.10;6.28;;;;;;;19.62;58.35;101678.09;4399413;32;20172;-73
2021/07/20 08:16:25;;;;;;;7.55;7.07;;;;;;;19.71;57.51;101682.78;4385960;32;20705;-71
2021/07/20 08:18:50;;;;;;;6.18;5.78;;;;;;;19.65;57.75;101683.19;4400526;32;20115;-71
2021/07/20 08:21:16;;;;;;;5.80;5.40;;;;;;;20.15;57.12;101674.19;4376914;32;20607;-68
2021/07/20 08:23:41;;;;;;;5.68;5.40;;;;;;;20.54;55.39;101675.53;4384244;32;20073;-68
2021/07/20 08:26:10;;;;;;;5.60;5.30;;;;;;;20.00;55.79;101677.03;4389123;32;20691;-69
2021/07/20 08:28:44;;;;;;;7.07;6.37;;;;;;;19.76;55.83;101684.25;4381905;32;20072;-69
2021/07/20 08:31:09;;;;;;;6.43;6.03;;;;;;;19.80;56.08;101659.91;4383061;32;20081;-72
2021/07/20 08:33:35;;;;;;;6.30;5.75;;;;;;;20.24;56.59;101678.78;4384573;32;20108;-71
2021/07/20 08:36:01;;;;;;;6.10;5.72;;;;;;;20.77;53.59;101670.22;4383687;32;20810;-70
2021/07/20 08:38:27;;;;;;;8.63;5.97;;;;;;;20.80;53.60;101683.31;4393283;32;20092;-68
2021/07/20 08:40:58;;;;;;;6.93;6.35;;;;;;;20.44;54.33;101680.75;4396561;32;20124;-72
2021/07/20 08:43:50;;;;;;;6.18;5.85;;;;;;;20.28;54.55;101686.41;4406134;32;20143;-71
2021/07/20 08:46:16;;;;;;;6.15;5.75;;;;;;;20.84;54.27;101682.09;4394764;32;20609;-72
2021/07/20 08:48:50;;;;;;;6.85;6.15;;;;;;;21.20;52.58;101677.44;4408328;32;20163;-75
2021/07/20 08:51:26;;;;;;;6.53;6.12;;;;;;;20.52;55.04;101656.97;4384502;32;20585;-73
2021/07/20 08:54:02;;;;;;;7.35;6.68;;;;;;;21.01;52.83;101684.28;4396956;32;20077;-72
2021/07/20 08:56:28;;;;;;;6.32;5.93;;;;;;;21.54;52.15;101675.53;4382043;32;20161;-72
2021/07/20 08:59:20;;;;;;;6.95;6.32;;;;;;;22.08;51.11;101681.69;4395358;32;20077;-73
2021/07/20 09:02:00;;;;;;;6.32;5.93;;;;;;;21.77;50.87;101684.31;4407141;32;20087;-74
2021/07/20 09:04:40;;;;;;;6.10;5.70;;;;;;;22.33;49.18;101682.28;4396248;32;20069;-71
2021/07/20 09:07:12;;;;;;;6.35;5.85;;;;;;;22.84;49.36;101679.53;4392676;32;20073;-71
2021/07/20 09:09:44;;;;;;;6.53;5.93;;;;;;;23.30;47.73;101685.31;4399658;32;20088;-71
2021/07/20 09:12:28;;;;;;;6.53;6.12;;;;;;;22.70;47.07;101683.44;4400957;32;20072;-71
2021/07/20 09:14:58;;;;;;;6.25;5.95;;;;;;;21.29;49.84;101618.78;4408163;32;20526;-71
2021/07/20 09:17:56;;;;;;;6.05;5.65;;;;;;;21.55;48.85;101692.41;4386533;32;20079;-69
2021/07/20 09:20:24;;;;;;;5.70;5.45;;;;;;;21.73;49.35;101682.88;4405676;32;21488;-69
2021/07/20 09:23:10;;;;;;;5.90;5.57;;;;;;;22.39;48.61;101692.44;4393776;32;20062;-69
2021/07/20 09:25:38;;;;;;;7.93;6.90;;;;;;;22.30;47.46;101691.44;4394547;32;20081;-69
2021/07/20 09:28:04;;;;;;;6.37;6.07;;;;;;;22.48;48.07;101692.50;4406635;32;20134;-70
2021/07/20 09:30:36;;;;;;;6.60;6.10;;;;;;;22.56;47.78;101691.00;4422148;32;20599;-69
2021/07/20 09:33:22;;;;;;;5.95;5.60;;;;;;;22.70;47.31;101685.28;4407814;32;20508;-69
2021/07/20 09:36:14;;;;;;;12.18;6.82;;;;;;;21.41;49.67;101686.38;4395374;32;20100;-69
2021/07/20 09:38:55;;;;;;;6.40;6.00;;;;;;;20.88;51.45;101692.41;4407735;32;20065;-67
2021/07/20 09:41:35;;;;;;;6.25;5.95;;;;;;;21.48;50.32;101689.41;4405144;32;20426;-72
2021/07/20 09:44:24;;;;;;;6.95;6.20;;;;;;;22.16;49.04;101683.72;4420113;32;20738;-72
2021/07/20 09:47:19;;;;;;;6.68;6.12;;;;;;;22.43;47.83;101686.72;4394323;32;20808;-69
2021/07/20 09:50:04;;;;;;;7.50;6.82;;;;;;;22.15;47.02;101677.53;4402866;32;20481;-68
2021/07/20 09:52:40;;;;;;;5.60;5.40;;;;;;;22.39;48.07;101674.59;4402184;32;20115;-71
2021/07/20 09:55:38;;;;;;;6.80;6.20;;;;;;;22.50;48.26;101681.66;4419928;32;20087;-73
2021/07/20 09:58:22;;;;;;;6.10;5.72;;;;;;;21.52;48.56;101683.66;4393518;32;20524;-72
2021/07/20 10:01:13;;;;;;;6.57;6.15;;;;;;;21.78;48.20;101691.31;4411224;32;21159;-71
2021/07/20 10:04:00;;;;;;;6.47;6.03;;;;;;;22.11;48.17;101681.44;4410208;32;20092;-70
2021/07/20 10:06:48;;;;;;;7.35;6.72;;;;;;;22.93;46.71;101677.87;4409756;32;20084;-71
2021/07/20 10:09:52;;;;;;;6.20;5.87;;;;;;;23.53;45.59;101683.19;4393133;32;20093;-69
2021/07/20 10:12:43;;;;;;;6.43;6.00;;;;;;;23.13;44.50;101672.59;4393365;32;20069;-73
2021/07/20 10:15:09;;;;;;;6.75;6.35;;;;;;;23.49;44.04;101682.66;4409282;32;20495;-72
2021/07/20 10:17:51;;;;;;;7.00;6.35;;;;;;;22.42;45.50;101676.97;4382794;32;20156;-71
2021/07/20 10:20:22;;;;;;;6.20;5.78;;;;;;;23.33;45.41;101666.25;4420470;32;20183;-74
2021/07/20 10:23:23;;;;;;;6.45;6.05;;;;;;;23.23;43.23;101671.66;4389711;32;20658;-72
2021/07/20 10:26:14;;;;;;;6.57;6.18;;;;;;;22.97;42.60;101615.03;4398356;32;20670;-72
2021/07/20 10:29:17;;;;;;;6.93;6.43;;;;;;;22.70;45.29;101670.06;4406655;32;20085;-71
2021/07/20 10:31:49;;;;;;;6.47;5.93;;;;;;;22.75;44.63;101677.66;4404315;32;20510;-73
2021/07/20 10:34:24;;;;;;;6.72;6.22;;;;;;;23.36;43.62;101676.72;4393840;32;20115;-72
2021/07/20 10:36:57;;;;;;;6.65;6.25;;;;;;;23.14;45.12;101655.56;4382758;32;20073;-74
2021/07/20 10:39:29;;;;;;;6.75;6.22;;;;;;;24.00;43.48;101664.56;4398860;32;20064;-72
2021/07/20 10:42:12;;;;;;;8.02;6.97;;;;;;;23.08;42.78;101667.66;4393423;32;20088;-70
2021/07/20 10:45:02;;;;;;;6.35;5.97;;;;;;;23.61;41.55;101616.34;4399321;32;20575;-70
2021/07/20 10:47:38;;;;;;;6.35;5.95;;;;;;;24.89;40.29;101663.25;4409538;32;20158;-69
2021/07/20 10:50:09;;;;;;;6.40;6.00;;;;;;;24.13;41.09;101658.88;4409743;32;20092;-70
2021/07/20 10:52:36;;;;;;;7.00;6.50;;;;;;;24.22;43.03;101659.88;4386266;32;20321;-69
2021/07/20 10:55:09;;;;;;;7.00;6.43;;;;;;;24.16;42.13;101663.97;4411847;32;20603;-69
2021/07/20 10:57:38;;;;;;;6.70;6.12;;;;;;;23.50;43.94;101662.91;4382267;32;20073;-69
2021/07/20 11:00:10;;;;;;;6.97;6.55;;;;;;;22.40;44.35;101605.88;4392269;32;20108;-69
2021/07/20 11:02:47;;;;;;;6.70;6.10;;;;;;;20.71;45.94;101416.34;4382571;32;20088;-69
2021/07/20 11:05:12;;;;;;;5.90;5.57;;;;;;;22.13;45.72;101663.44;4400180;32;20821;-70
2021/07/20 11:08:02;;;;;;;6.05;5.75;;;;;;;22.80;45.41;101650.53;4401107;32;20070;-70
2021/07/20 11:10:46;;;;;;;6.37;5.97;;;;;;;23.78;43.60;101656.87;4400275;32;20475;-70
2021/07/20 11:13:14;;;;;;;6.70;6.30;;;;;;;24.05;41.48;101648.03;4421691;32;20117;-70
2021/07/20 11:15:40;;;;;;;6.47;6.07;;;;;;;23.33;42.92;101657.37;4387715;32;20126;-70
2021/07/20 11:18:10;;;;;;;6.30;5.90;;;;;;;22.61;45.57;101657.50;4381150;32;20178;-70
2021/07/20 11:20:36;;;;;;;6.35;5.90;;;;;;;21.69;47.49;101636.00;4386939;32;20613;-70
2021/07/20 11:23:02;;;;;;;6.22;5.85;;;;;;;21.61;47.99;101651.81;4399329;32;20075;-70
2021/07/20 11:25:27;;;;;;;6.85;6.35;;;;;;;21.95;47.53;101624.91;4385633;32;20078;-70
2021/07/20 11:27:53;;;;;;;6.78;6.37;;;;;;;22.67;44.79;101653.41;4393354;32;20061;-70
2021/07/20 11:30:19;;;;;;;6.15;5.85;;;;;;;23.21;43.79;101652.19;4390247;32;20065;-70
2021/07/20 11:32:48;;;;;;;6.22;5.80;;;;;;;23.57;42.60;101648.94;4401038;32;20644;-70
2021/07/20 11:35:16;;;;;;;5.87;5.57;;;;;;;23.77;41.73;101647.94;4399874;32;20203;-70